sensor_id;sensor_type;location;lat;lon;timestamp;P1;durP1;ratioP1;P2;durP2;ratioP2
22754;SDS011;11544;42.020;23.094;2022-12-18T00:01:58;26.98;;;12.48;;
22754;SDS011;11544;42.020;23.094;2022-12-18T00:04:26;30.60;;;13.55;;
22754;SDS011;11544;42.020;23.094;2022-12-18T00:06:53;27.48;;;13.05;;
22754;SDS011;11544;42.020;23.094;2022-12-18T00:09:20;35.60;;;13.75;;
22754;SDS011;11544;42.020;23.094;2022-12-18T00:11:50;26.77;;;11.68;;
22754;SDS011;11544;42.020;23.094;2022-12-18T00:14:17;27.80;;;12.93;;
22754;SDS011;11544;42.020;23.094;2022-12-18T00:16:44;23.90;;;11.82;;
22754;SDS011;11544;42.020;23.094;2022-12-18T00:19:13;16.85;;;10.02;;
22754;SDS011;11544;42.020;23.094;2022-12-18T00:21:41;21.70;;;10.95;;
22754;SDS011;11544;42.020;23.094;2022-12-18T00:24:09;17.13;;;10.30;;
22754;SDS011;11544;42.020;23.094;2022-12-18T00:26:37;17.08;;;10.43;;
22754;SDS011;11544;42.020;23.094;2022-12-18T00:29:14;15.85;;;10.02;;
22754;SDS011;11544;42.020;23.094;2022-12-18T00:32:37;15.30;;;9.27;;
22754;SDS011;11544;42.020;23.094;2022-12-18T00:35:07;18.05;;;10.13;;
22754;SDS011;11544;42.020;23.094;2022-12-18T00:37:34;19.30;;;10.60;;
22754;SDS011;11544;42.020;23.094;2022-12-18T00:40:10;18.08;;;9.80;;
22754;SDS011;11544;42.020;23.094;2022-12-18T00:42:38;15.63;;;8.80;;
22754;SDS011;11544;42.020;23.094;2022-12-18T00:49:18;20.70;;;9.77;;
22754;SDS011;11544;42.020;23.094;2022-12-18T00:52:42;13.27;;;7.30;;
22754;SDS011;11544;42.020;23.094;2022-12-18T00:55:29;16.80;;;9.25;;
22754;SDS011;11544;42.020;23.094;2022-12-18T00:58:28;12.70;;;7.90;;
22754;SDS011;11544;42.020;23.094;2022-12-18T01:04:56;15.65;;;8.77;;
22754;SDS011;11544;42.020;23.094;2022-12-18T01:07:37;16.20;;;8.95;;
22754;SDS011;11544;42.020;23.094;2022-12-18T01:10:09;17.80;;;8.55;;
22754;SDS011;11544;42.020;23.094;2022-12-18T01:12:40;13.43;;;8.65;;
22754;SDS011;11544;42.020;23.094;2022-12-18T01:15:09;20.45;;;10.20;;
22754;SDS011;11544;42.020;23.094;2022-12-18T01:17:44;23.08;;;10.65;;
22754;SDS011;11544;42.020;23.094;2022-12-18T01:20:11;22.17;;;10.30;;
22754;SDS011;11544;42.020;23.094;2022-12-18T01:22:39;16.75;;;9.68;;
22754;SDS011;11544;42.020;23.094;2022-12-18T01:25:10;17.17;;;9.02;;
22754;SDS011;11544;42.020;23.094;2022-12-18T01:27:48;20.45;;;10.30;;
22754;SDS011;11544;42.020;23.094;2022-12-18T01:30:16;18.80;;;8.75;;
22754;SDS011;11544;42.020;23.094;2022-12-18T01:32:45;20.80;;;9.38;;
22754;SDS011;11544;42.020;23.094;2022-12-18T01:35:15;16.40;;;8.32;;
22754;SDS011;11544;42.020;23.094;2022-12-18T01:37:55;15.50;;;7.72;;
22754;SDS011;11544;42.020;23.094;2022-12-18T01:40:22;21.00;;;7.43;;
22754;SDS011;11544;42.020;23.094;2022-12-18T01:42:52;15.15;;;6.28;;
22754;SDS011;11544;42.020;23.094;2022-12-18T01:45:23;13.00;;;6.38;;
22754;SDS011;11544;42.020;23.094;2022-12-18T01:48:02;13.35;;;5.63;;
22754;SDS011;11544;42.020;23.094;2022-12-18T01:50:38;16.13;;;6.45;;
22754;SDS011;11544;42.020;23.094;2022-12-18T01:53:11;10.48;;;5.38;;
22754;SDS011;11544;42.020;23.094;2022-12-18T01:55:43;11.80;;;5.63;;
22754;SDS011;11544;42.020;23.094;2022-12-18T01:58:15;13.52;;;5.75;;
22754;SDS011;11544;42.020;23.094;2022-12-18T02:00:43;12.38;;;5.88;;
22754;SDS011;11544;42.020;23.094;2022-12-18T02:03:12;10.57;;;5.90;;
22754;SDS011;11544;42.020;23.094;2022-12-18T02:18:23;10.98;;;5.03;;
22754;SDS011;11544;42.020;23.094;2022-12-18T02:26:55;9.82;;;5.03;;
22754;SDS011;11544;42.020;23.094;2022-12-18T02:32:42;8.57;;;5.70;;
22754;SDS011;11544;42.020;23.094;2022-12-18T02:35:14;12.15;;;4.95;;
22754;SDS011;11544;42.020;23.094;2022-12-18T02:37:52;11.05;;;5.55;;
22754;SDS011;11544;42.020;23.094;2022-12-18T02:40:24;6.93;;;4.55;;
22754;SDS011;11544;42.020;23.094;2022-12-18T02:43:09;8.30;;;4.22;;
22754;SDS011;11544;42.020;23.094;2022-12-18T02:45:51;5.32;;;3.55;;
22754;SDS011;11544;42.020;23.094;2022-12-18T02:48:24;5.55;;;3.50;;
22754;SDS011;11544;42.020;23.094;2022-12-18T02:51:30;9.48;;;3.75;;
22754;SDS011;11544;42.020;23.094;2022-12-18T02:54:02;7.65;;;4.43;;
22754;SDS011;11544;42.020;23.094;2022-12-18T02:56:53;7.35;;;3.70;;
22754;SDS011;11544;42.020;23.094;2022-12-18T02:59:45;6.72;;;3.90;;
22754;SDS011;11544;42.020;23.094;2022-12-18T03:02:21;6.45;;;3.95;;
22754;SDS011;11544;42.020;23.094;2022-12-18T03:04:57;8.90;;;4.88;;
22754;SDS011;11544;42.020;23.094;2022-12-18T03:08:05;5.13;;;3.75;;
22754;SDS011;11544;42.020;23.094;2022-12-18T03:10:28;10.65;;;6.25;;
22754;SDS011;11544;42.020;23.094;2022-12-18T03:13:00;11.88;;;8.05;;
22754;SDS011;11544;42.020;23.094;2022-12-18T03:15:42;13.13;;;8.77;;
22754;SDS011;11544;42.020;23.094;2022-12-18T03:18:13;14.90;;;9.88;;
22754;SDS011;11544;42.020;23.094;2022-12-18T03:20:47;11.10;;;5.97;;
22754;SDS011;11544;42.020;23.094;2022-12-18T03:23:20;8.65;;;5.18;;
22754;SDS011;11544;42.020;23.094;2022-12-18T03:25:53;8.65;;;4.60;;
22754;SDS011;11544;42.020;23.094;2022-12-18T03:28:30;6.63;;;4.40;;
22754;SDS011;11544;42.020;23.094;2022-12-18T03:31:02;6.80;;;3.95;;
22754;SDS011;11544;42.020;23.094;2022-12-18T03:33:37;5.28;;;3.55;;
22754;SDS011;11544;42.020;23.094;2022-12-18T03:36:26;5.72;;;3.17;;
22754;SDS011;11544;42.020;23.094;2022-12-18T03:38:56;7.55;;;4.18;;
22754;SDS011;11544;42.020;23.094;2022-12-18T03:41:34;6.82;;;3.80;;
22754;SDS011;11544;42.020;23.094;2022-12-18T03:49:25;4.50;;;3.00;;
22754;SDS011;11544;42.020;23.094;2022-12-18T03:52:09;5.05;;;3.08;;
22754;SDS011;11544;42.020;23.094;2022-12-18T03:54:44;5.57;;;3.67;;
22754;SDS011;11544;42.020;23.094;2022-12-18T03:57:17;6.07;;;3.15;;
22754;SDS011;11544;42.020;23.094;2022-12-18T03:59:50;5.88;;;3.45;;
22754;SDS011;11544;42.020;23.094;2022-12-18T04:02:42;6.85;;;3.50;;
22754;SDS011;11544;42.020;23.094;2022-12-18T04:05:13;5.18;;;3.17;;
22754;SDS011;11544;42.020;23.094;2022-12-18T04:07:42;4.97;;;3.13;;
22754;SDS011;11544;42.020;23.094;2022-12-18T04:10:10;7.07;;;3.25;;
22754;SDS011;11544;42.020;23.094;2022-12-18T04:12:41;4.78;;;3.28;;
22754;SDS011;11544;42.020;23.094;2022-12-18T04:15:08;4.82;;;3.17;;
22754;SDS011;11544;42.020;23.094;2022-12-18T04:17:37;5.03;;;3.47;;
22754;SDS011;11544;42.020;23.094;2022-12-18T04:20:05;6.38;;;4.30;;
22754;SDS011;11544;42.020;23.094;2022-12-18T04:22:32;4.72;;;3.10;;
22754;SDS011;11544;42.020;23.094;2022-12-18T04:24:59;5.57;;;3.80;;
22754;SDS011;11544;42.020;23.094;2022-12-18T04:27:27;5.70;;;3.65;;
22754;SDS011;11544;42.020;23.094;2022-12-18T04:29:55;5.55;;;3.42;;
22754;SDS011;11544;42.020;23.094;2022-12-18T04:32:24;5.30;;;3.28;;
22754;SDS011;11544;42.020;23.094;2022-12-18T04:34:51;5.30;;;3.55;;
22754;SDS011;11544;42.020;23.094;2022-12-18T04:37:24;5.53;;;4.15;;
22754;SDS011;11544;42.020;23.094;2022-12-18T04:39:53;5.18;;;3.50;;
22754;SDS011;11544;42.020;23.094;2022-12-18T04:42:20;6.72;;;3.20;;
22754;SDS011;11544;42.020;23.094;2022-12-18T04:44:47;5.28;;;3.80;;
22754;SDS011;11544;42.020;23.094;2022-12-18T04:47:14;6.35;;;3.30;;
22754;SDS011;11544;42.020;23.094;2022-12-18T04:49:41;5.50;;;3.75;;
22754;SDS011;11544;42.020;23.094;2022-12-18T04:52:08;4.45;;;3.05;;
22754;SDS011;11544;42.020;23.094;2022-12-18T04:54:37;4.47;;;3.22;;
22754;SDS011;11544;42.020;23.094;2022-12-18T04:57:07;5.30;;;3.50;;
22754;SDS011;11544;42.020;23.094;2022-12-18T04:59:34;6.15;;;2.92;;
22754;SDS011;11544;42.020;23.094;2022-12-18T05:02:06;6.78;;;2.83;;
22754;SDS011;11544;42.020;23.094;2022-12-18T05:04:36;6.85;;;3.13;;
22754;SDS011;11544;42.020;23.094;2022-12-18T05:07:03;10.73;;;4.10;;
22754;SDS011;11544;42.020;23.094;2022-12-18T05:09:30;7.43;;;2.88;;
22754;SDS011;11544;42.020;23.094;2022-12-18T05:11:57;7.03;;;3.28;;
22754;SDS011;11544;42.020;23.094;2022-12-18T05:14:24;6.28;;;2.78;;
22754;SDS011;11544;42.020;23.094;2022-12-18T05:16:51;7.45;;;3.15;;
22754;SDS011;11544;42.020;23.094;2022-12-18T05:19:24;9.75;;;4.25;;
22754;SDS011;11544;42.020;23.094;2022-12-18T05:21:51;11.70;;;3.97;;
22754;SDS011;11544;42.020;23.094;2022-12-18T05:24:18;9.85;;;3.80;;
22754;SDS011;11544;42.020;23.094;2022-12-18T05:26:45;8.43;;;3.60;;
22754;SDS011;11544;42.020;23.094;2022-12-18T05:29:12;10.85;;;3.10;;
22754;SDS011;11544;42.020;23.094;2022-12-18T05:31:40;9.38;;;3.53;;
22754;SDS011;11544;42.020;23.094;2022-12-18T05:34:08;8.43;;;2.95;;
22754;SDS011;11544;42.020;23.094;2022-12-18T05:36:36;6.90;;;2.95;;
22754;SDS011;11544;42.020;23.094;2022-12-18T05:39:03;9.98;;;2.90;;
22754;SDS011;11544;42.020;23.094;2022-12-18T05:41:31;5.38;;;2.40;;
22754;SDS011;11544;42.020;23.094;2022-12-18T05:44:03;9.63;;;2.80;;
22754;SDS011;11544;42.020;23.094;2022-12-18T05:46:37;6.75;;;3.03;;
22754;SDS011;11544;42.020;23.094;2022-12-18T05:49:10;11.52;;;3.40;;
22754;SDS011;11544;42.020;23.094;2022-12-18T05:51:39;8.50;;;3.38;;
22754;SDS011;11544;42.020;23.094;2022-12-18T05:54:07;8.85;;;3.60;;
22754;SDS011;11544;42.020;23.094;2022-12-18T05:56:35;8.82;;;3.88;;
22754;SDS011;11544;42.020;23.094;2022-12-18T05:59:02;7.53;;;3.15;;
22754;SDS011;11544;42.020;23.094;2022-12-18T06:01:29;6.97;;;2.90;;
22754;SDS011;11544;42.020;23.094;2022-12-18T06:03:56;5.70;;;2.72;;
22754;SDS011;11544;42.020;23.094;2022-12-18T06:06:24;6.65;;;3.05;;
22754;SDS011;11544;42.020;23.094;2022-12-18T06:08:54;6.10;;;2.95;;
22754;SDS011;11544;42.020;23.094;2022-12-18T06:11:41;6.32;;;3.05;;
22754;SDS011;11544;42.020;23.094;2022-12-18T06:14:17;7.85;;;3.50;;
22754;SDS011;11544;42.020;23.094;2022-12-18T06:16:46;9.55;;;3.47;;
22754;SDS011;11544;42.020;23.094;2022-12-18T06:19:26;7.15;;;3.17;;
22754;SDS011;11544;42.020;23.094;2022-12-18T06:22:38;5.25;;;2.72;;
22754;SDS011;11544;42.020;23.094;2022-12-18T06:25:07;5.75;;;3.05;;
22754;SDS011;11544;42.020;23.094;2022-12-18T06:27:41;4.03;;;2.40;;
22754;SDS011;11544;42.020;23.094;2022-12-18T06:30:15;4.35;;;2.67;;
22754;SDS011;11544;42.020;23.094;2022-12-18T06:33:07;4.47;;;2.47;;
22754;SDS011;11544;42.020;23.094;2022-12-18T06:36:04;6.00;;;3.17;;
22754;SDS011;11544;42.020;23.094;2022-12-18T06:42:36;4.10;;;3.10;;
22754;SDS011;11544;42.020;23.094;2022-12-18T06:48:00;4.05;;;2.50;;
22754;SDS011;11544;42.020;23.094;2022-12-18T06:50:37;5.45;;;3.28;;
22754;SDS011;11544;42.020;23.094;2022-12-18T06:53:16;4.97;;;3.83;;
22754;SDS011;11544;42.020;23.094;2022-12-18T07:07:36;5.72;;;3.03;;
22754;SDS011;11544;42.020;23.094;2022-12-18T07:19:06;4.07;;;2.55;;
22754;SDS011;11544;42.020;23.094;2022-12-18T07:25:17;7.38;;;2.80;;
22754;SDS011;11544;42.020;23.094;2022-12-18T07:27:45;6.70;;;3.15;;
22754;SDS011;11544;42.020;23.094;2022-12-18T07:30:42;5.93;;;3.47;;
22754;SDS011;11544;42.020;23.094;2022-12-18T07:33:32;4.30;;;2.78;;
22754;SDS011;11544;42.020;23.094;2022-12-18T07:36:00;4.97;;;3.40;;
22754;SDS011;11544;42.020;23.094;2022-12-18T07:38:48;5.85;;;3.38;;
22754;SDS011;11544;42.020;23.094;2022-12-18T08:54:10;5.53;;;4.00;;
22754;SDS011;11544;42.020;23.094;2022-12-18T09:28:36;7.68;;;4.22;;
22754;SDS011;11544;42.020;23.094;2022-12-18T09:31:24;9.40;;;4.97;;
22754;SDS011;11544;42.020;23.094;2022-12-18T09:33:59;10.63;;;6.65;;
22754;SDS011;11544;42.020;23.094;2022-12-18T09:36:27;8.93;;;5.15;;
22754;SDS011;11544;42.020;23.094;2022-12-18T09:39:03;9.45;;;5.28;;
22754;SDS011;11544;42.020;23.094;2022-12-18T09:41:58;9.65;;;5.60;;
22754;SDS011;11544;42.020;23.094;2022-12-18T09:44:29;9.02;;;5.05;;
22754;SDS011;11544;42.020;23.094;2022-12-18T15:46:16;19.90;;;8.10;;
22754;SDS011;11544;42.020;23.094;2022-12-18T15:49:04;16.30;;;7.20;;
22754;SDS011;11544;42.020;23.094;2022-12-18T15:51:34;18.48;;;9.32;;
22754;SDS011;11544;42.020;23.094;2022-12-18T15:54:06;31.73;;;13.85;;
22754;SDS011;11544;42.020;23.094;2022-12-18T15:56:47;20.33;;;10.25;;
22754;SDS011;11544;42.020;23.094;2022-12-18T15:59:46;18.77;;;8.20;;
22754;SDS011;11544;42.020;23.094;2022-12-18T16:02:32;19.48;;;8.98;;
22754;SDS011;11544;42.020;23.094;2022-12-18T16:07:35;16.13;;;8.15;;
22754;SDS011;11544;42.020;23.094;2022-12-18T16:13:38;14.88;;;7.50;;
22754;SDS011;11544;42.020;23.094;2022-12-18T16:24:05;27.50;;;9.82;;
